Overview Statistics Trail Chart Weather Telemetry Raw packets
 

This is the latest recevied weather packets stored in our database for station/object VE2CSM-13. If no packets are shown the sender has not sent any weather packets the latest 10 day(s).

<< 1 2 3 4 >>
Time Temp. Humidity Pressure Rain* Wind** Luminosity Snow
1788617090 17.22° C 80% 1025.3 hPa 0 mm - - -
1788613488 16.11° C 88% 1024.8 hPa 0 mm - - -
1788609887 15° C 94% 1024.3 hPa 0 mm - - -
1788606287 15° C 95% 1024.2 hPa 0 mm - - -
1788602686 15° C 95% 1023.7 hPa 0.25 mm - - -
1788599091 15.56° C 94% 1023 hPa 0 mm - - -
1788595487 15° C 95% 1022.6 hPa 0 mm - - -
1788593567 15° C 93% 1022.5 hPa 0 mm - - -
1788591649 15.56° C 93% 1022.5 hPa 0 mm - - -
1788590687 15.56° C 93% 1022.4 hPa 0 mm - - -
1788589727 15.56° C 93% 1022.4 hPa 0 mm - - -
1788589486 15.56° C 93% 1022.5 hPa 0 mm - - -
1788589247 15.56° C 93% 1022.5 hPa 0 mm - - -
1788588772 15.56° C 93% 1022.4 hPa 0 mm - - -
1788588528 15.56° C 93% 1022.4 hPa 0 mm - - -
1788588288 15.56° C 93% 1022.5 hPa 0 mm - - -
1788584682 15.56° C 92% 1022.5 hPa 0 mm - - -
1788581083 15.56° C 91% 1022.8 hPa 0 mm - - -
1788577482 16.11° C 93% 1022.2 hPa 0 mm - - -
1788573894 16.11° C 92% 1022.2 hPa 0 mm - - -
1788570283 16.11° C 89% 1022 hPa 0 mm - - -
1788566684 16.67° C 91% 1021.8 hPa 0 mm - - -
1788563082 17.78° C 91% 1021.4 hPa 0 mm - - -
1788559484 17.78° C 93% 1020.7 hPa 0 mm - - -
1788555884 18.89° C 92% 1021 hPa 1.02 mm - - -

* Rain latest hour (hover to see other rain measurements)
** Current wind speed in m/s (hover to see current wind gust speed)